sensor_id;sensor_type;location;lat;lon;timestamp;P1;durP1;ratioP1;P2;durP2;ratioP2
38865;SDS011;62686;48.984;8.394;2022-08-19T00:00:44;13.10;;;11.85;;
38865;SDS011;62686;48.984;8.394;2022-08-19T00:03:12;12.63;;;11.43;;
38865;SDS011;62686;48.984;8.394;2022-08-19T00:05:40;12.82;;;11.73;;
38865;SDS011;62686;48.984;8.394;2022-08-19T00:08:08;12.07;;;11.07;;
38865;SDS011;62686;48.984;8.394;2022-08-19T00:10:36;15.63;;;11.85;;
38865;SDS011;62686;48.984;8.394;2022-08-19T00:13:04;11.65;;;10.65;;
38865;SDS011;62686;48.984;8.394;2022-08-19T00:15:33;12.52;;;11.20;;
38865;SDS011;62686;48.984;8.394;2022-08-19T00:18:02;11.77;;;10.57;;
38865;SDS011;62686;48.984;8.394;2022-08-19T00:20:30;12.07;;;10.98;;
38865;SDS011;62686;48.984;8.394;2022-08-19T00:22:58;12.57;;;11.48;;
38865;SDS011;62686;48.984;8.394;2022-08-19T00:25:26;11.77;;;10.70;;
38865;SDS011;62686;48.984;8.394;2022-08-19T00:27:55;12.25;;;10.55;;
38865;SDS011;62686;48.984;8.394;2022-08-19T00:30:24;11.95;;;10.85;;
38865;SDS011;62686;48.984;8.394;2022-08-19T00:32:53;11.48;;;10.50;;
38865;SDS011;62686;48.984;8.394;2022-08-19T00:35:24;12.50;;;11.35;;
38865;SDS011;62686;48.984;8.394;2022-08-19T00:37:53;12.40;;;11.30;;
38865;SDS011;62686;48.984;8.394;2022-08-19T00:40:22;12.00;;;10.90;;
38865;SDS011;62686;48.984;8.394;2022-08-19T00:42:51;12.45;;;11.23;;
38865;SDS011;62686;48.984;8.394;2022-08-19T00:45:21;11.43;;;10.52;;
38865;SDS011;62686;48.984;8.394;2022-08-19T00:47:52;12.68;;;11.50;;
38865;SDS011;62686;48.984;8.394;2022-08-19T00:50:21;11.70;;;10.63;;
38865;SDS011;62686;48.984;8.394;2022-08-19T00:52:51;13.88;;;12.68;;
38865;SDS011;62686;48.984;8.394;2022-08-19T00:55:21;13.75;;;12.45;;
38865;SDS011;62686;48.984;8.394;2022-08-19T00:57:53;12.45;;;11.35;;
38865;SDS011;62686;48.984;8.394;2022-08-19T01:00:25;13.20;;;12.10;;
38865;SDS011;62686;48.984;8.394;2022-08-19T01:02:54;13.40;;;12.18;;
38865;SDS011;62686;48.984;8.394;2022-08-19T01:05:25;13.20;;;12.10;;
38865;SDS011;62686;48.984;8.394;2022-08-19T01:07:57;12.18;;;10.95;;
38865;SDS011;62686;48.984;8.394;2022-08-19T01:10:29;12.27;;;11.23;;
38865;SDS011;62686;48.984;8.394;2022-08-19T01:13:01;15.50;;;11.38;;
38865;SDS011;62686;48.984;8.394;2022-08-19T01:15:33;12.60;;;11.35;;
38865;SDS011;62686;48.984;8.394;2022-08-19T01:18:08;12.25;;;11.25;;
38865;SDS011;62686;48.984;8.394;2022-08-19T01:20:37;12.93;;;11.70;;
38865;SDS011;62686;48.984;8.394;2022-08-19T01:23:09;12.55;;;11.50;;
38865;SDS011;62686;48.984;8.394;2022-08-19T01:25:39;11.60;;;10.45;;
38865;SDS011;62686;48.984;8.394;2022-08-19T01:28:15;12.35;;;11.25;;
38865;SDS011;62686;48.984;8.394;2022-08-19T01:30:44;13.45;;;12.32;;
38865;SDS011;62686;48.984;8.394;2022-08-19T01:33:13;13.50;;;12.32;;
38865;SDS011;62686;48.984;8.394;2022-08-19T01:35:41;12.90;;;11.70;;
38865;SDS011;62686;48.984;8.394;2022-08-19T01:38:19;13.80;;;12.50;;
38865;SDS011;62686;48.984;8.394;2022-08-19T01:40:51;13.23;;;12.02;;
38865;SDS011;62686;48.984;8.394;2022-08-19T01:43:19;14.45;;;13.10;;
38865;SDS011;62686;48.984;8.394;2022-08-19T01:45:47;14.30;;;13.10;;
38865;SDS011;62686;48.984;8.394;2022-08-19T01:48:17;14.40;;;13.18;;
38865;SDS011;62686;48.984;8.394;2022-08-19T01:50:45;16.55;;;14.85;;
38865;SDS011;62686;48.984;8.394;2022-08-19T01:53:15;16.15;;;14.38;;
38865;SDS011;62686;48.984;8.394;2022-08-19T01:55:44;15.55;;;13.95;;
38865;SDS011;62686;48.984;8.394;2022-08-19T01:58:13;16.33;;;14.70;;
38865;SDS011;62686;48.984;8.394;2022-08-19T02:00:44;15.48;;;13.95;;
38865;SDS011;62686;48.984;8.394;2022-08-19T02:03:13;16.30;;;14.90;;
38865;SDS011;62686;48.984;8.394;2022-08-19T02:05:43;18.05;;;16.35;;
38865;SDS011;62686;48.984;8.394;2022-08-19T02:08:11;16.55;;;15.10;;
38865;SDS011;62686;48.984;8.394;2022-08-19T02:10:43;17.55;;;15.95;;
38865;SDS011;62686;48.984;8.394;2022-08-19T02:13:12;18.27;;;16.38;;
38865;SDS011;62686;48.984;8.394;2022-08-19T02:15:41;19.10;;;17.30;;
38865;SDS011;62686;48.984;8.394;2022-08-19T02:18:09;18.30;;;16.60;;
38865;SDS011;62686;48.984;8.394;2022-08-19T02:20:38;19.45;;;16.88;;
38865;SDS011;62686;48.984;8.394;2022-08-19T02:23:07;17.75;;;16.20;;
38865;SDS011;62686;48.984;8.394;2022-08-19T02:25:36;17.92;;;16.30;;
38865;SDS011;62686;48.984;8.394;2022-08-19T02:28:06;19.45;;;17.55;;
38865;SDS011;62686;48.984;8.394;2022-08-19T02:30:34;19.17;;;17.40;;
38865;SDS011;62686;48.984;8.394;2022-08-19T02:33:02;18.42;;;16.55;;
38865;SDS011;62686;48.984;8.394;2022-08-19T02:35:30;18.67;;;16.98;;
38865;SDS011;62686;48.984;8.394;2022-08-19T02:37:59;22.42;;;19.88;;
38865;SDS011;62686;48.984;8.394;2022-08-19T02:40:47;18.27;;;16.58;;
38865;SDS011;62686;48.984;8.394;2022-08-19T02:43:19;18.88;;;17.15;;
38865;SDS011;62686;48.984;8.394;2022-08-19T02:45:48;18.63;;;16.92;;
38865;SDS011;62686;48.984;8.394;2022-08-19T02:48:17;18.58;;;16.75;;
38865;SDS011;62686;48.984;8.394;2022-08-19T02:50:47;18.73;;;17.02;;
38865;SDS011;62686;48.984;8.394;2022-08-19T02:53:22;19.70;;;17.80;;
38865;SDS011;62686;48.984;8.394;2022-08-19T02:55:50;19.80;;;17.80;;
38865;SDS011;62686;48.984;8.394;2022-08-19T02:58:21;20.40;;;18.60;;
38865;SDS011;62686;48.984;8.394;2022-08-19T03:00:50;16.92;;;15.32;;
38865;SDS011;62686;48.984;8.394;2022-08-19T03:03:20;20.83;;;18.75;;
38865;SDS011;62686;48.984;8.394;2022-08-19T03:05:48;19.48;;;17.58;;
38865;SDS011;62686;48.984;8.394;2022-08-19T03:08:16;19.60;;;17.55;;
38865;SDS011;62686;48.984;8.394;2022-08-19T03:10:45;18.17;;;16.50;;
38865;SDS011;62686;48.984;8.394;2022-08-19T03:13:15;18.35;;;16.70;;
38865;SDS011;62686;48.984;8.394;2022-08-19T03:15:46;18.23;;;16.63;;
38865;SDS011;62686;48.984;8.394;2022-08-19T03:18:16;17.02;;;15.32;;
38865;SDS011;62686;48.984;8.394;2022-08-19T03:20:45;16.90;;;15.40;;
38865;SDS011;62686;48.984;8.394;2022-08-19T03:23:14;18.10;;;16.40;;
38865;SDS011;62686;48.984;8.394;2022-08-19T03:25:44;18.08;;;16.52;;
38865;SDS011;62686;48.984;8.394;2022-08-19T03:28:14;19.15;;;17.20;;
38865;SDS011;62686;48.984;8.394;2022-08-19T03:30:54;19.05;;;17.25;;
38865;SDS011;62686;48.984;8.394;2022-08-19T03:33:24;18.48;;;16.77;;
38865;SDS011;62686;48.984;8.394;2022-08-19T03:36:03;19.25;;;17.48;;
38865;SDS011;62686;48.984;8.394;2022-08-19T03:38:34;19.67;;;17.77;;
38865;SDS011;62686;48.984;8.394;2022-08-19T03:41:04;21.60;;;19.38;;
38865;SDS011;62686;48.984;8.394;2022-08-19T03:43:34;20.60;;;18.80;;
38865;SDS011;62686;48.984;8.394;2022-08-19T03:46:06;20.33;;;18.23;;
38865;SDS011;62686;48.984;8.394;2022-08-19T03:48:37;23.02;;;20.88;;
38865;SDS011;62686;48.984;8.394;2022-08-19T03:51:07;22.10;;;19.83;;
38865;SDS011;62686;48.984;8.394;2022-08-19T03:53:42;23.67;;;20.67;;
38865;SDS011;62686;48.984;8.394;2022-08-19T03:56:11;21.50;;;19.50;;
38865;SDS011;62686;48.984;8.394;2022-08-19T03:58:40;21.23;;;19.20;;
38865;SDS011;62686;48.984;8.394;2022-08-19T04:01:10;21.83;;;19.52;;
38865;SDS011;62686;48.984;8.394;2022-08-19T04:03:40;23.10;;;20.83;;
38865;SDS011;62686;48.984;8.394;2022-08-19T04:06:09;23.67;;;20.67;;
38865;SDS011;62686;48.984;8.394;2022-08-19T04:08:39;25.17;;;22.55;;
38865;SDS011;62686;48.984;8.394;2022-08-19T04:11:08;25.10;;;22.60;;
38865;SDS011;62686;48.984;8.394;2022-08-19T04:13:37;24.00;;;21.70;;
38865;SDS011;62686;48.984;8.394;2022-08-19T04:16:06;26.45;;;23.92;;
38865;SDS011;62686;48.984;8.394;2022-08-19T04:18:37;26.88;;;24.25;;
38865;SDS011;62686;48.984;8.394;2022-08-19T04:21:07;26.90;;;24.13;;
38865;SDS011;62686;48.984;8.394;2022-08-19T04:23:35;29.00;;;25.92;;
38865;SDS011;62686;48.984;8.394;2022-08-19T04:26:03;27.35;;;24.65;;
38865;SDS011;62686;48.984;8.394;2022-08-19T04:28:32;26.65;;;23.98;;
38865;SDS011;62686;48.984;8.394;2022-08-19T04:31:00;28.30;;;25.42;;
38865;SDS011;62686;48.984;8.394;2022-08-19T04:33:28;26.90;;;24.30;;
38865;SDS011;62686;48.984;8.394;2022-08-19T04:35:58;25.13;;;22.55;;
38865;SDS011;62686;48.984;8.394;2022-08-19T04:38:26;26.65;;;24.00;;
38865;SDS011;62686;48.984;8.394;2022-08-19T04:40:54;26.58;;;23.98;;
38865;SDS011;62686;48.984;8.394;2022-08-19T04:43:41;26.98;;;24.35;;
38865;SDS011;62686;48.984;8.394;2022-08-19T04:46:15;26.20;;;23.15;;
38865;SDS011;62686;48.984;8.394;2022-08-19T04:48:43;24.83;;;22.35;;
38865;SDS011;62686;48.984;8.394;2022-08-19T04:51:13;24.58;;;22.17;;
38865;SDS011;62686;48.984;8.394;2022-08-19T04:53:42;22.83;;;20.42;;
38865;SDS011;62686;48.984;8.394;2022-08-19T04:56:11;24.73;;;22.23;;
38865;SDS011;62686;48.984;8.394;2022-08-19T04:58:42;24.83;;;22.42;;
38865;SDS011;62686;48.984;8.394;2022-08-19T05:01:12;23.42;;;21.08;;
38865;SDS011;62686;48.984;8.394;2022-08-19T05:03:41;22.05;;;19.92;;
38865;SDS011;62686;48.984;8.394;2022-08-19T05:06:10;21.38;;;19.38;;
38865;SDS011;62686;48.984;8.394;2022-08-19T05:08:42;23.05;;;20.63;;
38865;SDS011;62686;48.984;8.394;2022-08-19T05:11:13;22.35;;;20.15;;
38865;SDS011;62686;48.984;8.394;2022-08-19T05:13:44;22.73;;;20.38;;
38865;SDS011;62686;48.984;8.394;2022-08-19T05:16:12;22.85;;;20.55;;
38865;SDS011;62686;48.984;8.394;2022-08-19T05:18:41;24.48;;;20.52;;
38865;SDS011;62686;48.984;8.394;2022-08-19T05:21:27;23.27;;;20.98;;
38865;SDS011;62686;48.984;8.394;2022-08-19T05:24:15;21.95;;;19.75;;
38865;SDS011;62686;48.984;8.394;2022-08-19T05:26:45;22.92;;;20.67;;
38865;SDS011;62686;48.984;8.394;2022-08-19T05:29:16;21.10;;;19.10;;
38865;SDS011;62686;48.984;8.394;2022-08-19T05:31:45;20.60;;;18.70;;
38865;SDS011;62686;48.984;8.394;2022-08-19T05:34:15;20.15;;;18.25;;
38865;SDS011;62686;48.984;8.394;2022-08-19T05:36:44;20.90;;;18.80;;
38865;SDS011;62686;48.984;8.394;2022-08-19T05:39:15;21.80;;;19.67;;
38865;SDS011;62686;48.984;8.394;2022-08-19T05:41:46;20.05;;;18.15;;
38865;SDS011;62686;48.984;8.394;2022-08-19T05:44:16;19.92;;;17.83;;
38865;SDS011;62686;48.984;8.394;2022-08-19T05:46:46;19.63;;;17.73;;
38865;SDS011;62686;48.984;8.394;2022-08-19T05:49:15;19.75;;;17.75;;
38865;SDS011;62686;48.984;8.394;2022-08-19T05:51:43;19.38;;;17.58;;
38865;SDS011;62686;48.984;8.394;2022-08-19T05:54:11;19.20;;;17.33;;
38865;SDS011;62686;48.984;8.394;2022-08-19T05:56:42;17.30;;;15.70;;
38865;SDS011;62686;48.984;8.394;2022-08-19T05:59:14;18.05;;;16.15;;
38865;SDS011;62686;48.984;8.394;2022-08-19T06:01:44;18.55;;;16.67;;
38865;SDS011;62686;48.984;8.394;2022-08-19T06:04:17;18.80;;;16.98;;
38865;SDS011;62686;48.984;8.394;2022-08-19T06:06:46;17.90;;;16.20;;
38865;SDS011;62686;48.984;8.394;2022-08-19T06:09:16;16.88;;;15.20;;
38865;SDS011;62686;48.984;8.394;2022-08-19T06:11:47;18.58;;;16.67;;
38865;SDS011;62686;48.984;8.394;2022-08-19T06:14:22;17.40;;;15.52;;
38865;SDS011;62686;48.984;8.394;2022-08-19T06:16:51;17.45;;;15.75;;
38865;SDS011;62686;48.984;8.394;2022-08-19T06:19:20;18.10;;;16.30;;
38865;SDS011;62686;48.984;8.394;2022-08-19T06:21:51;18.83;;;16.10;;
38865;SDS011;62686;48.984;8.394;2022-08-19T06:24:21;18.13;;;16.35;;
38865;SDS011;62686;48.984;8.394;2022-08-19T06:26:53;17.92;;;15.57;;
38865;SDS011;62686;48.984;8.394;2022-08-19T06:29:25;18.73;;;16.33;;
38865;SDS011;62686;48.984;8.394;2022-08-19T06:31:55;18.13;;;16.20;;
38865;SDS011;62686;48.984;8.394;2022-08-19T06:34:24;16.52;;;14.85;;
38865;SDS011;62686;48.984;8.394;2022-08-19T06:36:54;18.20;;;16.50;;
38865;SDS011;62686;48.984;8.394;2022-08-19T06:39:26;15.70;;;14.27;;
38865;SDS011;62686;48.984;8.394;2022-08-19T06:41:58;16.17;;;14.68;;
38865;SDS011;62686;48.984;8.394;2022-08-19T06:44:28;17.30;;;15.60;;
38865;SDS011;62686;48.984;8.394;2022-08-19T06:47:02;16.05;;;14.43;;
38865;SDS011;62686;48.984;8.394;2022-08-19T06:49:32;15.98;;;14.38;;
38865;SDS011;62686;48.984;8.394;2022-08-19T06:52:01;16.02;;;14.52;;
38865;SDS011;62686;48.984;8.394;2022-08-19T06:54:30;17.17;;;15.32;;
38865;SDS011;62686;48.984;8.394;2022-08-19T06:57:01;15.77;;;14.23;;
38865;SDS011;62686;48.984;8.394;2022-08-19T06:59:30;15.80;;;14.20;;
38865;SDS011;62686;48.984;8.394;2022-08-19T07:02:00;15.65;;;14.23;;
38865;SDS011;62686;48.984;8.394;2022-08-19T07:04:32;14.50;;;13.05;;
38865;SDS011;62686;48.984;8.394;2022-08-19T07:07:04;13.85;;;12.65;;
38865;SDS011;62686;48.984;8.394;2022-08-19T07:09:35;14.98;;;13.48;;
38865;SDS011;62686;48.984;8.394;2022-08-19T07:12:07;16.80;;;14.02;;
38865;SDS011;62686;48.984;8.394;2022-08-19T07:14:36;19.58;;;13.00;;
38865;SDS011;62686;48.984;8.394;2022-08-19T07:17:07;14.85;;;13.00;;
38865;SDS011;62686;48.984;8.394;2022-08-19T07:19:38;14.57;;;11.90;;
38865;SDS011;62686;48.984;8.394;2022-08-19T07:22:07;16.15;;;12.93;;
38865;SDS011;62686;48.984;8.394;2022-08-19T07:24:37;13.77;;;12.57;;
38865;SDS011;62686;48.984;8.394;2022-08-19T07:27:07;12.63;;;11.52;;
38865;SDS011;62686;48.984;8.394;2022-08-19T07:29:36;12.48;;;11.38;;
38865;SDS011;62686;48.984;8.394;2022-08-19T07:32:05;12.55;;;11.38;;
38865;SDS011;62686;48.984;8.394;2022-08-19T07:34:35;14.07;;;12.02;;
38865;SDS011;62686;48.984;8.394;2022-08-19T07:37:04;11.48;;;10.48;;
38865;SDS011;62686;48.984;8.394;2022-08-19T07:39:33;11.90;;;10.20;;
38865;SDS011;62686;48.984;8.394;2022-08-19T07:42:05;11.75;;;10.07;;
38865;SDS011;62686;48.984;8.394;2022-08-19T07:44:36;15.43;;;10.50;;
38865;SDS011;62686;48.984;8.394;2022-08-19T07:47:05;11.85;;;9.85;;
38865;SDS011;62686;48.984;8.394;2022-08-19T07:49:34;12.20;;;10.38;;
38865;SDS011;62686;48.984;8.394;2022-08-19T07:52:03;10.25;;;9.35;;
38865;SDS011;62686;48.984;8.394;2022-08-19T07:54:35;11.15;;;10.05;;
38865;SDS011;62686;48.984;8.394;2022-08-19T07:57:04;12.68;;;10.43;;
38865;SDS011;62686;48.984;8.394;2022-08-19T07:59:33;10.65;;;9.55;;
38865;SDS011;62686;48.984;8.394;2022-08-19T08:02:04;11.43;;;10.07;;
38865;SDS011;62686;48.984;8.394;2022-08-19T08:04:32;10.63;;;9.63;;
38865;SDS011;62686;48.984;8.394;2022-08-19T08:07:18;11.77;;;10.38;;
38865;SDS011;62686;48.984;8.394;2022-08-19T08:10:04;11.32;;;10.23;;
38865;SDS011;62686;48.984;8.394;2022-08-19T08:12:37;14.15;;;9.70;;
38865;SDS011;62686;48.984;8.394;2022-08-19T08:15:08;10.57;;;9.40;;
38865;SDS011;62686;48.984;8.394;2022-08-19T08:17:39;10.15;;;9.05;;
38865;SDS011;62686;48.984;8.394;2022-08-19T08:20:08;9.48;;;8.48;;
38865;SDS011;62686;48.984;8.394;2022-08-19T08:22:37;11.55;;;8.88;;
38865;SDS011;62686;48.984;8.394;2022-08-19T08:25:28;8.57;;;7.68;;
38865;SDS011;62686;48.984;8.394;2022-08-19T08:27:57;8.27;;;7.47;;
38865;SDS011;62686;48.984;8.394;2022-08-19T08:30:27;11.13;;;7.60;;
38865;SDS011;62686;48.984;8.394;2022-08-19T08:32:58;8.88;;;8.02;;
38865;SDS011;62686;48.984;8.394;2022-08-19T08:35:26;8.32;;;7.40;;
38865;SDS011;62686;48.984;8.394;2022-08-19T08:37:54;7.38;;;6.75;;
38865;SDS011;62686;48.984;8.394;2022-08-19T08:40:23;7.78;;;7.03;;
38865;SDS011;62686;48.984;8.394;2022-08-19T08:42:57;8.20;;;7.30;;
38865;SDS011;62686;48.984;8.394;2022-08-19T08:45:32;8.38;;;6.97;;
38865;SDS011;62686;48.984;8.394;2022-08-19T08:48:04;7.50;;;6.75;;
38865;SDS011;62686;48.984;8.394;2022-08-19T08:50:42;9.05;;;6.80;;
38865;SDS011;62686;48.984;8.394;2022-08-19T08:53:14;6.35;;;5.75;;
38865;SDS011;62686;48.984;8.394;2022-08-19T08:55:44;7.18;;;5.00;;
38865;SDS011;62686;48.984;8.394;2022-08-19T08:58:14;6.07;;;5.47;;
38865;SDS011;62686;48.984;8.394;2022-08-19T09:00:48;7.68;;;5.40;;
38865;SDS011;62686;48.984;8.394;2022-08-19T09:03:19;8.13;;;5.28;;
38865;SDS011;62686;48.984;8.394;2022-08-19T09:05:52;7.15;;;5.65;;
38865;SDS011;62686;48.984;8.394;2022-08-19T09:08:27;6.75;;;5.38;;
38865;SDS011;62686;48.984;8.394;2022-08-19T09:11:05;7.40;;;5.45;;
38865;SDS011;62686;48.984;8.394;2022-08-19T09:13:40;6.82;;;5.32;;
38865;SDS011;62686;48.984;8.394;2022-08-19T09:16:17;7.47;;;5.25;;
38865;SDS011;62686;48.984;8.394;2022-08-19T09:18:49;6.43;;;4.60;;
38865;SDS011;62686;48.984;8.394;2022-08-19T09:21:20;8.80;;;5.80;;
38865;SDS011;62686;48.984;8.394;2022-08-19T09:23:51;8.38;;;4.55;;
38865;SDS011;62686;48.984;8.394;2022-08-19T09:26:21;6.55;;;4.78;;
38865;SDS011;62686;48.984;8.394;2022-08-19T09:28:51;6.15;;;5.03;;
38865;SDS011;62686;48.984;8.394;2022-08-19T09:31:22;6.32;;;4.53;;
38865;SDS011;62686;48.984;8.394;2022-08-19T09:33:53;5.65;;;4.68;;
38865;SDS011;62686;48.984;8.394;2022-08-19T09:36:24;5.40;;;4.40;;
38865;SDS011;62686;48.984;8.394;2022-08-19T09:38:55;9.45;;;4.40;;
38865;SDS011;62686;48.984;8.394;2022-08-19T09:41:24;5.97;;;4.20;;
38865;SDS011;62686;48.984;8.394;2022-08-19T09:43:54;7.05;;;4.72;;
38865;SDS011;62686;48.984;8.394;2022-08-19T09:46:24;5.25;;;4.50;;
38865;SDS011;62686;48.984;8.394;2022-08-19T09:48:59;5.82;;;4.32;;
38865;SDS011;62686;48.984;8.394;2022-08-19T09:51:27;5.13;;;4.38;;
38865;SDS011;62686;48.984;8.394;2022-08-19T09:53:58;5.28;;;3.90;;
38865;SDS011;62686;48.984;8.394;2022-08-19T09:56:28;5.95;;;3.70;;
38865;SDS011;62686;48.984;8.394;2022-08-19T09:58:58;6.15;;;3.75;;
38865;SDS011;62686;48.984;8.394;2022-08-19T10:01:29;5.15;;;3.65;;
38865;SDS011;62686;48.984;8.394;2022-08-19T10:03:59;4.63;;;4.13;;
38865;SDS011;62686;48.984;8.394;2022-08-19T10:06:30;4.30;;;3.90;;
38865;SDS011;62686;48.984;8.394;2022-08-19T10:08:59;5.50;;;3.53;;
38865;SDS011;62686;48.984;8.394;2022-08-19T10:11:30;5.32;;;3.63;;
38865;SDS011;62686;48.984;8.394;2022-08-19T10:13:58;4.57;;;3.80;;
38865;SDS011;62686;48.984;8.394;2022-08-19T10:16:27;4.07;;;3.55;;
38865;SDS011;62686;48.984;8.394;2022-08-19T10:18:55;5.45;;;3.83;;
38865;SDS011;62686;48.984;8.394;2022-08-19T10:21:26;4.00;;;3.60;;
38865;SDS011;62686;48.984;8.394;2022-08-19T10:23:58;6.10;;;3.92;;
38865;SDS011;62686;48.984;8.394;2022-08-19T10:26:30;6.35;;;3.85;;
38865;SDS011;62686;48.984;8.394;2022-08-19T10:29:02;5.80;;;3.70;;
38865;SDS011;62686;48.984;8.394;2022-08-19T10:31:32;5.35;;;4.25;;
38865;SDS011;62686;48.984;8.394;2022-08-19T10:34:01;3.70;;;3.05;;
38865;SDS011;62686;48.984;8.394;2022-08-19T10:36:33;4.20;;;3.80;;
38865;SDS011;62686;48.984;8.394;2022-08-19T10:39:04;6.85;;;3.78;;
38865;SDS011;62686;48.984;8.394;2022-08-19T10:41:35;5.10;;;4.05;;
38865;SDS011;62686;48.984;8.394;2022-08-19T10:44:06;5.30;;;3.50;;
38865;SDS011;62686;48.984;8.394;2022-08-19T10:46:39;6.88;;;3.45;;
38865;SDS011;62686;48.984;8.394;2022-08-19T10:49:10;5.78;;;3.50;;
38865;SDS011;62686;48.984;8.394;2022-08-19T10:51:40;4.10;;;3.70;;
38865;SDS011;62686;48.984;8.394;2022-08-19T10:54:26;6.75;;;4.25;;
38865;SDS011;62686;48.984;8.394;2022-08-19T10:57:09;9.05;;;3.67;;
38865;SDS011;62686;48.984;8.394;2022-08-19T10:59:37;4.05;;;3.75;;
38865;SDS011;62686;48.984;8.394;2022-08-19T11:02:07;3.85;;;3.55;;
38865;SDS011;62686;48.984;8.394;2022-08-19T11:04:38;4.20;;;3.78;;
38865;SDS011;62686;48.984;8.394;2022-08-19T11:07:08;8.48;;;3.95;;
38865;SDS011;62686;48.984;8.394;2022-08-19T11:09:38;5.03;;;3.90;;
38865;SDS011;62686;48.984;8.394;2022-08-19T11:12:09;4.78;;;4.32;;
38865;SDS011;62686;48.984;8.394;2022-08-19T11:14:38;6.32;;;4.57;;
38865;SDS011;62686;48.984;8.394;2022-08-19T11:17:07;4.03;;;3.63;;
38865;SDS011;62686;48.984;8.394;2022-08-19T11:19:37;6.50;;;4.18;;
38865;SDS011;62686;48.984;8.394;2022-08-19T11:22:07;4.22;;;3.83;;
38865;SDS011;62686;48.984;8.394;2022-08-19T11:24:36;6.82;;;3.60;;
38865;SDS011;62686;48.984;8.394;2022-08-19T11:27:05;5.57;;;4.45;;
38865;SDS011;62686;48.984;8.394;2022-08-19T11:29:35;4.30;;;3.80;;
38865;SDS011;62686;48.984;8.394;2022-08-19T11:32:06;4.70;;;3.72;;
38865;SDS011;62686;48.984;8.394;2022-08-19T11:34:36;6.53;;;4.45;;
38865;SDS011;62686;48.984;8.394;2022-08-19T11:37:05;8.50;;;4.38;;
38865;SDS011;62686;48.984;8.394;2022-08-19T11:39:36;4.65;;;3.72;;
38865;SDS011;62686;48.984;8.394;2022-08-19T11:42:05;5.32;;;4.35;;
38865;SDS011;62686;48.984;8.394;2022-08-19T11:44:54;6.28;;;4.32;;
38865;SDS011;62686;48.984;8.394;2022-08-19T11:47:22;4.75;;;4.05;;
38865;SDS011;62686;48.984;8.394;2022-08-19T11:49:51;7.32;;;4.43;;
38865;SDS011;62686;48.984;8.394;2022-08-19T11:52:19;4.00;;;3.60;;
38865;SDS011;62686;48.984;8.394;2022-08-19T11:54:49;3.90;;;3.50;;
38865;SDS011;62686;48.984;8.394;2022-08-19T11:57:17;4.85;;;3.40;;
38865;SDS011;62686;48.984;8.394;2022-08-19T11:59:49;3.67;;;3.30;;
38865;SDS011;62686;48.984;8.394;2022-08-19T12:02:19;3.67;;;3.30;;
38865;SDS011;62686;48.984;8.394;2022-08-19T12:04:48;5.78;;;3.47;;
38865;SDS011;62686;48.984;8.394;2022-08-19T12:07:16;3.90;;;3.00;;
38865;SDS011;62686;48.984;8.394;2022-08-19T12:09:44;6.25;;;3.13;;
38865;SDS011;62686;48.984;8.394;2022-08-19T12:12:14;4.93;;;3.10;;
38865;SDS011;62686;48.984;8.394;2022-08-19T12:14:42;4.60;;;2.90;;
38865;SDS011;62686;48.984;8.394;2022-08-19T12:17:12;4.63;;;2.92;;
38865;SDS011;62686;48.984;8.394;2022-08-19T12:19:40;3.58;;;3.08;;
38865;SDS011;62686;48.984;8.394;2022-08-19T12:22:09;4.00;;;3.38;;
38865;SDS011;62686;48.984;8.394;2022-08-19T12:24:37;3.55;;;3.25;;
38865;SDS011;62686;48.984;8.394;2022-08-19T12:27:05;6.70;;;3.67;;
38865;SDS011;62686;48.984;8.394;2022-08-19T12:29:35;5.15;;;3.85;;
38865;SDS011;62686;48.984;8.394;2022-08-19T12:32:03;4.82;;;4.35;;
38865;SDS011;62686;48.984;8.394;2022-08-19T12:34:31;5.28;;;4.28;;
38865;SDS011;62686;48.984;8.394;2022-08-19T12:37:01;4.35;;;3.95;;
38865;SDS011;62686;48.984;8.394;2022-08-19T12:39:33;5.93;;;3.92;;
38865;SDS011;62686;48.984;8.394;2022-08-19T12:42:03;4.20;;;3.90;;
38865;SDS011;62686;48.984;8.394;2022-08-19T12:44:32;6.82;;;4.18;;
38865;SDS011;62686;48.984;8.394;2022-08-19T12:47:01;4.00;;;3.70;;
38865;SDS011;62686;48.984;8.394;2022-08-19T12:49:30;3.80;;;3.50;;
38865;SDS011;62686;48.984;8.394;2022-08-19T12:52:00;3.60;;;3.30;;
38865;SDS011;62686;48.984;8.394;2022-08-19T12:54:28;3.75;;;3.45;;
38865;SDS011;62686;48.984;8.394;2022-08-19T12:56:57;3.63;;;3.30;;
38865;SDS011;62686;48.984;8.394;2022-08-19T12:59:25;3.22;;;2.92;;
38865;SDS011;62686;48.984;8.394;2022-08-19T13:01:54;6.15;;;3.67;;
38865;SDS011;62686;48.984;8.394;2022-08-19T13:04:25;3.10;;;2.85;;
38865;SDS011;62686;48.984;8.394;2022-08-19T13:06:53;6.10;;;3.05;;
38865;SDS011;62686;48.984;8.394;2022-08-19T13:09:21;3.67;;;2.70;;
38865;SDS011;62686;48.984;8.394;2022-08-19T13:11:49;3.25;;;2.67;;
38865;SDS011;62686;48.984;8.394;2022-08-19T13:14:17;2.67;;;2.47;;
38865;SDS011;62686;48.984;8.394;2022-08-19T13:16:46;3.42;;;2.60;;
38865;SDS011;62686;48.984;8.394;2022-08-19T13:19:14;2.95;;;2.63;;
38865;SDS011;62686;48.984;8.394;2022-08-19T13:21:43;2.67;;;2.47;;
38865;SDS011;62686;48.984;8.394;2022-08-19T13:24:11;2.90;;;2.70;;
38865;SDS011;62686;48.984;8.394;2022-08-19T13:26:40;4.72;;;2.50;;
38865;SDS011;62686;48.984;8.394;2022-08-19T13:29:08;2.50;;;2.13;;
38865;SDS011;62686;48.984;8.394;2022-08-19T13:31:54;4.50;;;2.28;;
38865;SDS011;62686;48.984;8.394;2022-08-19T13:34:39;2.78;;;2.33;;
38865;SDS011;62686;48.984;8.394;2022-08-19T13:37:09;2.65;;;2.15;;
38865;SDS011;62686;48.984;8.394;2022-08-19T13:39:37;2.90;;;2.10;;
38865;SDS011;62686;48.984;8.394;2022-08-19T13:42:05;2.50;;;1.95;;
38865;SDS011;62686;48.984;8.394;2022-08-19T13:44:34;3.13;;;1.90;;
38865;SDS011;62686;48.984;8.394;2022-08-19T13:47:03;2.78;;;1.75;;
38865;SDS011;62686;48.984;8.394;2022-08-19T13:49:33;3.17;;;1.85;;
38865;SDS011;62686;48.984;8.394;2022-08-19T13:52:02;3.38;;;1.80;;
38865;SDS011;62686;48.984;8.394;2022-08-19T13:54:33;1.95;;;1.70;;
38865;SDS011;62686;48.984;8.394;2022-08-19T13:57:01;2.63;;;1.60;;
38865;SDS011;62686;48.984;8.394;2022-08-19T13:59:30;2.42;;;2.03;;
38865;SDS011;62686;48.984;8.394;2022-08-19T14:01:59;1.77;;;1.60;;
38865;SDS011;62686;48.984;8.394;2022-08-19T14:04:28;1.95;;;1.75;;
38865;SDS011;62686;48.984;8.394;2022-08-19T14:06:56;2.25;;;1.83;;
38865;SDS011;62686;48.984;8.394;2022-08-19T14:09:24;5.43;;;2.22;;
38865;SDS011;62686;48.984;8.394;2022-08-19T14:11:54;3.60;;;2.03;;
38865;SDS011;62686;48.984;8.394;2022-08-19T14:14:22;2.13;;;1.85;;
38865;SDS011;62686;48.984;8.394;2022-08-19T14:16:50;2.42;;;2.20;;
38865;SDS011;62686;48.984;8.394;2022-08-19T14:19:19;3.45;;;2.20;;
38865;SDS011;62686;48.984;8.394;2022-08-19T14:21:47;2.20;;;2.00;;
38865;SDS011;62686;48.984;8.394;2022-08-19T14:24:15;2.40;;;2.20;;
38865;SDS011;62686;48.984;8.394;2022-08-19T14:26:43;2.30;;;2.10;;
38865;SDS011;62686;48.984;8.394;2022-08-19T14:29:13;2.40;;;2.20;;
38865;SDS011;62686;48.984;8.394;2022-08-19T14:31:42;2.40;;;2.17;;
38865;SDS011;62686;48.984;8.394;2022-08-19T14:34:10;6.63;;;2.70;;
38865;SDS011;62686;48.984;8.394;2022-08-19T14:36:38;5.40;;;2.80;;
38865;SDS011;62686;48.984;8.394;2022-08-19T14:39:08;2.50;;;2.30;;
38865;SDS011;62686;48.984;8.394;2022-08-19T14:41:36;2.53;;;2.25;;
38865;SDS011;62686;48.984;8.394;2022-08-19T14:44:07;2.95;;;2.65;;
38865;SDS011;62686;48.984;8.394;2022-08-19T14:46:40;4.22;;;2.50;;
38865;SDS011;62686;48.984;8.394;2022-08-19T14:49:08;2.45;;;2.25;;
38865;SDS011;62686;48.984;8.394;2022-08-19T14:51:36;2.30;;;2.10;;